Altamont, Utah
Current Conditions -  °F | °C
As of 10:53 AM on Sunday 21 Dec 2014 (Local Time) from KVEL Reporting Station
Overcast Overcast  
Wind Chill: 31°   Ceiling: 1500
Heat Index: 31°   Visibility: 7mi
Dew Point: 28°   Wind: 0mph
Humidity: 89%   Direction: NA
Pressure: 29.95"   Gusts: NA
Location:  40.36°N, 110.29°W
Report Text: KVEL 211753Z AUTO 00000KT 7SM BKN015 OVC027 M01/M02 A2995 RMK AO2 SLP158 T10061022 11006 21022 56005
Loading
Personal Weather Stations






























Interactive Weather Map New forecast layout! Learn more

10-Day Weather Forecast

Advertisements
Track Severe Weather on mobile